createdAt,value
2023-03-08T00:01:52.925Z,19.80
2023-03-08T00:04:22.303Z,15.23
2023-03-08T00:06:51.673Z,14.30
2023-03-08T00:09:20.994Z,15.58
2023-03-08T00:11:50.242Z,16.15
2023-03-08T00:14:21.000Z,15.70
2023-03-08T00:16:50.316Z,16.17
2023-03-08T00:19:19.602Z,15.95
2023-03-08T00:21:48.851Z,17.45
2023-03-08T00:24:19.800Z,17.52
2023-03-08T00:26:49.035Z,18.67
2023-03-08T00:29:18.410Z,19.15
2023-03-08T00:31:47.773Z,19.87
2023-03-08T00:34:17.588Z,19.90
2023-03-08T00:36:46.839Z,20.90
2023-03-08T00:39:17.785Z,21.48
2023-03-08T00:41:47.054Z,21.68
2023-03-08T00:44:16.308Z,21.33
2023-03-08T00:46:45.636Z,21.60
2023-03-08T00:49:15.668Z,21.85
2023-03-08T00:51:44.920Z,23.65
2023-03-08T00:54:14.229Z,22.80
2023-03-08T00:56:43.452Z,22.85
2023-03-08T00:59:12.803Z,24.63
2023-03-08T01:01:42.650Z,27.37
2023-03-08T01:04:13.160Z,27.50
2023-03-08T01:06:44.168Z,29.23
2023-03-08T01:09:13.620Z,29.70
2023-03-08T01:11:44.233Z,29.75
2023-03-08T01:16:43.579Z,30.35
2023-03-08T01:19:12.824Z,31.00
2023-03-08T01:21:43.886Z,32.93
2023-03-08T01:24:13.590Z,34.05
2023-03-08T01:26:42.855Z,32.15
2023-03-08T01:29:12.589Z,33.18
2023-03-08T01:31:41.835Z,34.27
2023-03-08T01:34:11.240Z,34.65
2023-03-08T01:36:40.542Z,33.98
2023-03-08T01:39:09.946Z,33.42
2023-03-08T01:41:40.159Z,35.00
2023-03-08T01:44:17.320Z,32.67
2023-03-08T01:46:47.094Z,35.23
2023-03-08T01:49:24.163Z,35.48
2023-03-08T01:51:57.285Z,36.28
2023-03-08T01:54:47.269Z,37.60
2023-03-08T01:57:22.383Z,36.48
2023-03-08T01:59:52.777Z,38.10
2023-03-08T02:02:27.199Z,39.55
2023-03-08T02:04:56.053Z,40.45
2023-03-08T02:07:26.386Z,41.40
2023-03-08T02:09:56.087Z,39.65
2023-03-08T02:12:25.542Z,40.45
2023-03-08T02:14:55.083Z,39.50
2023-03-08T02:17:24.578Z,41.55
2023-03-08T02:20:03.168Z,41.48
2023-03-08T02:22:32.458Z,41.33
2023-03-08T02:25:01.728Z,40.90
2023-03-08T02:27:30.964Z,42.43
2023-03-08T02:30:03.627Z,44.15
2023-03-08T02:32:34.054Z,45.98
2023-03-08T02:35:03.529Z,45.50
2023-03-08T02:37:33.909Z,46.18
2023-03-08T02:40:04.894Z,45.33
2023-03-08T02:42:34.287Z,46.50
2023-03-08T02:45:03.573Z,46.40
2023-03-08T02:47:34.033Z,46.20
2023-03-08T02:50:03.517Z,46.05
2023-03-08T02:52:32.938Z,46.80
2023-03-08T02:55:02.269Z,48.45
2023-03-08T02:57:31.679Z,47.48
2023-03-08T03:00:00.988Z,50.03
2023-03-08T03:02:30.707Z,49.00
2023-03-08T03:05:00.621Z,47.10
2023-03-08T03:07:30.272Z,46.35
2023-03-08T03:09:59.588Z,47.03
2023-03-08T03:12:29.025Z,45.78
2023-03-08T03:14:58.506Z,48.65
2023-03-08T03:17:27.830Z,48.30
2023-03-08T03:19:57.248Z,47.35
2023-03-08T03:22:26.481Z,50.48
2023-03-08T03:24:55.867Z,51.15
2023-03-08T03:27:25.606Z,51.30
2023-03-08T03:29:55.738Z,50.55
2023-03-08T03:32:25.563Z,50.60
2023-03-08T03:34:55.174Z,52.08
2023-03-08T03:37:24.684Z,52.38
2023-03-08T03:39:54.322Z,50.83
2023-03-08T03:42:23.726Z,51.25
2023-03-08T03:44:54.733Z,50.80
2023-03-08T03:47:24.206Z,50.15
2023-03-08T03:49:55.198Z,49.98
2023-03-08T03:52:24.848Z,51.33
2023-03-08T03:54:58.626Z,50.00
2023-03-08T03:57:28.146Z,49.13
2023-03-08T03:59:58.671Z,48.38
2023-03-08T04:02:29.538Z,47.65
2023-03-08T04:05:00.553Z,47.83
2023-03-08T04:07:31.364Z,48.92
2023-03-08T04:10:01.896Z,47.75
2023-03-08T04:12:32.278Z,47.98
2023-03-08T04:15:01.606Z,51.60
2023-03-08T04:17:32.689Z,51.83
2023-03-08T04:20:01.914Z,52.03
2023-03-08T04:22:33.163Z,54.23
2023-03-08T04:25:04.759Z,52.08
2023-03-08T04:27:35.721Z,53.20
2023-03-08T04:30:06.650Z,52.27
2023-03-08T04:32:36.868Z,52.45
2023-03-08T04:35:07.625Z,53.68
2023-03-08T04:37:37.727Z,49.33
2023-03-08T04:40:09.939Z,51.92
2023-03-08T04:42:41.046Z,48.50
2023-03-08T04:45:11.897Z,51.28
2023-03-08T04:47:41.448Z,53.02
2023-03-08T04:50:12.556Z,53.42
2023-03-08T04:52:42.310Z,49.00
2023-03-08T04:55:12.393Z,56.50
2023-03-08T04:57:41.830Z,53.75
2023-03-08T05:00:12.480Z,53.15
2023-03-08T05:02:42.813Z,38.63
2023-03-08T05:05:13.960Z,51.10
2023-03-08T05:07:43.743Z,53.23
2023-03-08T05:10:13.551Z,51.30
2023-03-08T05:12:43.169Z,52.53
2023-03-08T05:15:12.869Z,50.85
2023-03-08T05:17:42.134Z,55.55
2023-03-08T05:20:12.427Z,50.40
2023-03-08T05:22:57.353Z,52.05
2023-03-08T05:25:13.994Z,49.80
2023-03-08T05:27:43.844Z,49.53
2023-03-08T05:30:14.041Z,48.85
2023-03-08T05:32:43.413Z,52.30
2023-03-08T05:35:13.148Z,48.68
2023-03-08T05:37:42.776Z,46.88
2023-03-08T05:40:13.934Z,46.10
2023-03-08T05:42:44.558Z,47.58
2023-03-08T05:45:15.422Z,45.17
2023-03-08T05:47:46.093Z,43.95
2023-03-08T05:50:15.354Z,45.95
2023-03-08T05:52:45.482Z,42.55
2023-03-08T05:55:16.529Z,44.53
2023-03-08T05:57:46.169Z,42.58
2023-03-08T06:00:17.159Z,42.98
2023-03-08T06:02:48.210Z,42.85
2023-03-08T06:05:17.527Z,40.03
2023-03-08T06:07:47.830Z,40.98
2023-03-08T06:10:18.163Z,40.95
2023-03-08T06:12:47.875Z,41.98
2023-03-08T06:15:18.028Z,41.90
2023-03-08T06:17:47.360Z,40.60
2023-03-08T06:20:18.471Z,41.63
2023-03-08T06:22:49.660Z,41.77
2023-03-08T06:25:20.844Z,38.80
2023-03-08T06:27:50.521Z,38.25
2023-03-08T06:30:33.472Z,38.75
2023-03-08T06:33:04.442Z,34.83
2023-03-08T06:35:34.288Z,36.50
2023-03-08T06:38:04.084Z,34.13
2023-03-08T06:40:34.003Z,31.40
2023-03-08T06:43:03.248Z,31.00
2023-03-08T06:45:34.448Z,30.10
2023-03-08T06:48:03.705Z,28.52
2023-03-08T06:50:34.992Z,28.15
2023-03-08T06:53:04.449Z,24.82
2023-03-08T06:55:42.340Z,23.98
2023-03-08T06:58:11.635Z,22.22
2023-03-08T07:00:41.060Z,23.42
2023-03-08T07:03:11.040Z,22.25
2023-03-08T07:05:40.924Z,20.45
2023-03-08T07:08:10.222Z,21.00
2023-03-08T07:10:39.471Z,20.43
2023-03-08T07:13:08.672Z,20.52
2023-03-08T07:15:40.729Z,19.77
2023-03-08T07:18:10.185Z,19.85
2023-03-08T07:20:39.445Z,21.82
2023-03-08T07:23:08.688Z,22.02
2023-03-08T07:25:42.849Z,22.27
2023-03-08T07:28:12.051Z,21.02
2023-03-08T07:30:41.645Z,23.32
2023-03-08T07:33:13.132Z,24.00
2023-03-08T07:35:42.407Z,22.75
2023-03-08T07:38:13.436Z,22.17
2023-03-08T07:40:42.989Z,21.95
2023-03-08T07:43:12.777Z,22.75
2023-03-08T07:45:49.853Z,22.32
2023-03-08T07:48:19.113Z,20.35
2023-03-08T07:50:49.030Z,20.40
2023-03-08T07:53:18.242Z,20.23
2023-03-08T07:55:47.774Z,20.92
2023-03-08T07:58:17.040Z,20.12
2023-03-08T08:00:46.335Z,19.98
2023-03-08T08:03:15.651Z,20.50
2023-03-08T08:05:45.040Z,19.67
2023-03-08T08:08:14.527Z,19.90
2023-03-08T08:10:44.218Z,19.67
2023-03-08T08:13:13.643Z,19.27
2023-03-08T08:15:42.902Z,19.15
2023-03-08T08:18:12.134Z,21.25
2023-03-08T08:20:41.571Z,19.27
2023-03-08T08:23:10.765Z,18.82
2023-03-08T08:25:40.884Z,19.90
2023-03-08T08:28:10.110Z,18.25
2023-03-08T08:30:39.376Z,19.23
2023-03-08T08:33:08.636Z,20.27
2023-03-08T08:35:43.575Z,20.27
2023-03-08T08:38:12.960Z,19.40
2023-03-08T08:40:42.227Z,18.20
2023-03-08T08:43:11.512Z,17.45
2023-03-08T08:45:46.025Z,16.82
2023-03-08T08:48:15.802Z,17.98
2023-03-08T08:50:45.022Z,17.20
2023-03-08T08:53:14.298Z,18.12
2023-03-08T08:55:45.569Z,17.40
2023-03-08T08:58:15.207Z,17.45
2023-03-08T09:00:45.345Z,16.62
2023-03-08T09:03:14.693Z,16.10
2023-03-08T09:05:45.866Z,16.17
2023-03-08T09:08:15.458Z,16.32
2023-03-08T09:10:44.691Z,14.55
2023-03-08T09:13:14.228Z,14.15
2023-03-08T09:15:43.540Z,14.75
2023-03-08T09:18:12.778Z,14.05
2023-03-08T09:20:42.003Z,13.80
2023-03-08T09:23:11.356Z,13.95
2023-03-08T09:25:40.591Z,14.73
2023-03-08T09:28:10.316Z,15.28
2023-03-08T09:30:39.786Z,15.55
2023-03-08T09:33:09.182Z,14.03
2023-03-08T09:35:38.510Z,15.65
2023-03-08T09:38:07.869Z,15.75
2023-03-08T09:40:40.330Z,16.02
2023-03-08T09:45:41.319Z,14.63
2023-03-08T09:48:23.082Z,15.58
2023-03-08T09:50:58.200Z,15.10
2023-03-08T09:53:42.386Z,15.38
2023-03-08T09:56:14.807Z,14.93
2023-03-08T10:01:17.334Z,12.88
2023-03-08T10:07:00.079Z,12.70
2023-03-08T10:09:33.429Z,13.98
2023-03-08T10:12:12.799Z,13.32
2023-03-08T10:14:39.958Z,13.13
2023-03-08T10:19:48.957Z,13.55
2023-03-08T10:24:51.517Z,13.70
2023-03-08T10:27:23.198Z,15.70
2023-03-08T10:30:00.039Z,14.60
2023-03-08T10:32:30.144Z,15.80
2023-03-08T10:35:04.792Z,16.67
2023-03-08T10:37:34.717Z,16.48
2023-03-08T10:40:09.450Z,16.30
2023-03-08T10:42:38.945Z,16.60
2023-03-08T10:45:20.209Z,16.35
2023-03-08T10:47:57.635Z,16.48
2023-03-08T10:50:29.457Z,16.37
2023-03-08T10:53:13.954Z,17.23
2023-03-08T10:55:46.315Z,16.73
2023-03-08T10:58:37.262Z,15.48
2023-03-08T11:01:29.088Z,16.45
2023-03-08T11:04:07.049Z,16.62
2023-03-08T11:06:36.433Z,16.12
2023-03-08T11:09:08.816Z,16.25
2023-03-08T11:11:44.278Z,16.42
2023-03-08T11:14:13.600Z,15.63
2023-03-08T11:17:03.807Z,16.60
2023-03-08T11:19:45.082Z,17.05
2023-03-08T11:22:32.117Z,17.85
2023-03-08T11:25:19.551Z,16.73
2023-03-08T11:28:01.246Z,15.53
2023-03-08T11:30:49.823Z,12.87
2023-03-08T11:33:41.997Z,13.98
2023-03-08T11:36:33.676Z,12.50
2023-03-08T11:39:15.004Z,13.45
2023-03-08T11:41:50.087Z,13.78
2023-03-08T11:44:33.666Z,14.75
2023-03-08T11:47:43.985Z,15.05
2023-03-08T11:50:30.741Z,15.93
2023-03-08T11:53:06.159Z,16.10
2023-03-08T11:55:55.252Z,16.35
2023-03-08T11:58:30.315Z,16.17
2023-03-08T12:01:04.520Z,16.67
2023-03-08T12:03:39.402Z,15.78
2023-03-08T12:06:28.219Z,14.38
2023-03-08T12:09:10.891Z,13.85
2023-03-08T12:11:42.390Z,13.68
2023-03-08T12:14:17.781Z,12.85
2023-03-08T12:16:50.371Z,12.80
2023-03-08T12:19:28.855Z,13.38
2023-03-08T12:22:20.802Z,12.28
2023-03-08T12:25:08.500Z,12.03
2023-03-08T12:27:43.921Z,13.45
2023-03-08T12:30:16.253Z,12.78
2023-03-08T12:32:47.588Z,13.72
2023-03-08T12:35:34.784Z,13.93
2023-03-08T12:38:08.859Z,14.03
2023-03-08T12:40:47.217Z,13.95
2023-03-08T12:43:22.624Z,13.72
2023-03-08T12:46:04.368Z,13.03
2023-03-08T12:48:46.009Z,12.23
2023-03-08T12:51:18.484Z,11.73
2023-03-08T12:56:34.135Z,11.20
2023-03-08T12:59:12.334Z,11.95
2023-03-08T13:01:47.913Z,11.78
2023-03-08T13:04:42.427Z,12.60
2023-03-08T13:07:14.728Z,12.75
2023-03-08T13:12:21.858Z,11.75
2023-03-08T13:15:03.085Z,12.65
2023-03-08T13:17:39.364Z,12.05
2023-03-08T13:20:14.991Z,10.70
2023-03-08T13:22:50.237Z,10.78
2023-03-08T13:25:35.009Z,10.95
2023-03-08T13:28:15.928Z,11.25
2023-03-08T13:30:49.819Z,10.72
2023-03-08T13:33:24.697Z,10.93
2023-03-08T13:36:10.915Z,10.15
2023-03-08T13:38:40.242Z,11.38
2023-03-08T13:41:09.465Z,12.20
2023-03-08T13:43:39.324Z,10.58
2023-03-08T13:46:11.877Z,10.80
2023-03-08T13:48:44.530Z,9.43
2023-03-08T13:51:17.959Z,9.90
2023-03-08T13:53:48.078Z,10.00
2023-03-08T13:56:28.572Z,9.60
2023-03-08T13:58:59.041Z,9.50
2023-03-08T14:01:28.570Z,10.18
2023-03-08T14:03:59.042Z,9.80
2023-03-08T14:06:36.672Z,8.60
2023-03-08T14:09:07.329Z,8.00
2023-03-08T14:11:39.386Z,9.38
2023-03-08T14:14:11.829Z,8.48
2023-03-08T14:16:42.273Z,10.68
2023-03-08T14:19:15.121Z,11.18
2023-03-08T14:22:05.642Z,8.33
2023-03-08T14:24:36.316Z,9.40
2023-03-08T14:27:09.071Z,8.83
2023-03-08T14:29:38.421Z,8.33
2023-03-08T14:32:14.309Z,8.65
2023-03-08T14:34:49.842Z,9.55
2023-03-08T14:37:30.380Z,9.20
2023-03-08T14:40:26.724Z,7.75
2023-03-08T14:43:02.579Z,8.40
2023-03-08T14:45:34.908Z,10.10
2023-03-08T14:48:23.484Z,9.33
2023-03-08T14:50:55.023Z,8.80
2023-03-08T14:53:35.586Z,8.33
2023-03-08T14:56:13.072Z,8.63
2023-03-08T14:58:49.059Z,10.43
2023-03-08T15:01:30.008Z,9.38
2023-03-08T15:03:59.936Z,9.45
2023-03-08T15:06:35.412Z,9.08
2023-03-08T15:09:07.383Z,10.40
2023-03-08T15:11:37.058Z,11.57
2023-03-08T15:14:06.517Z,9.55
2023-03-08T15:16:35.862Z,9.70
2023-03-08T15:19:05.573Z,10.38
2023-03-08T15:21:35.359Z,11.53
2023-03-08T15:24:05.282Z,11.93
2023-03-08T15:26:34.611Z,9.98
2023-03-08T15:29:04.165Z,9.50
2023-03-08T15:31:33.498Z,10.13
2023-03-08T15:34:02.958Z,11.60
2023-03-08T15:36:33.816Z,10.50
2023-03-08T15:39:04.633Z,9.63
2023-03-08T15:41:33.865Z,9.28
2023-03-08T15:44:03.240Z,9.65
2023-03-08T15:46:32.479Z,10.78
2023-03-08T15:49:01.863Z,10.75
2023-03-08T15:51:35.969Z,10.28
2023-03-08T15:54:06.603Z,9.75
2023-03-08T15:56:35.774Z,10.08
2023-03-08T15:59:05.034Z,9.48
2023-03-08T16:01:34.302Z,9.55
2023-03-08T16:04:04.411Z,10.18
2023-03-08T16:06:33.668Z,10.75
2023-03-08T16:09:03.271Z,11.43
2023-03-08T16:11:33.186Z,12.73
2023-03-08T16:14:02.801Z,14.87
2023-03-08T16:16:44.285Z,15.23
2023-03-08T16:19:03.070Z,15.53
2023-03-08T16:21:32.262Z,15.20
2023-03-08T16:24:02.707Z,12.80
2023-03-08T16:26:31.937Z,15.03
2023-03-08T16:29:01.775Z,14.73
2023-03-08T16:31:32.654Z,15.45
2023-03-08T16:34:06.480Z,15.30
2023-03-08T16:36:35.677Z,15.60
2023-03-08T16:39:06.257Z,15.70
2023-03-08T16:41:40.250Z,19.80
2023-03-08T16:44:27.278Z,19.40
2023-03-08T16:46:56.864Z,16.73
2023-03-08T16:49:27.819Z,18.15
2023-03-08T16:51:58.143Z,17.67
2023-03-08T16:54:27.504Z,17.92
2023-03-08T16:56:56.686Z,15.68
2023-03-08T16:59:26.089Z,17.25
2023-03-08T17:01:55.259Z,20.17
2023-03-08T17:04:24.789Z,23.32
2023-03-08T17:06:54.037Z,22.98
2023-03-08T17:09:23.633Z,22.00
2023-03-08T17:11:52.850Z,20.85
2023-03-08T17:14:22.953Z,20.15
2023-03-08T17:16:52.238Z,20.10
2023-03-08T17:19:21.474Z,21.25
2023-03-08T17:21:53.895Z,19.20
2023-03-08T17:26:53.021Z,20.23
2023-03-08T17:29:22.494Z,20.20
2023-03-08T17:31:52.584Z,20.72
2023-03-08T17:34:23.417Z,19.55
2023-03-08T17:36:53.382Z,23.27
2023-03-08T17:39:22.618Z,23.60
2023-03-08T17:41:51.816Z,21.68
2023-03-08T17:44:21.215Z,23.42
2023-03-08T17:46:50.413Z,25.77
2023-03-08T17:49:21.676Z,20.05
2023-03-08T17:51:52.047Z,18.07
2023-03-08T17:54:21.566Z,15.85
2023-03-08T17:56:50.956Z,16.45
2023-03-08T17:59:20.392Z,16.25
2023-03-08T18:01:50.167Z,16.48
2023-03-08T18:04:21.134Z,16.75
2023-03-08T18:06:50.488Z,17.35
2023-03-08T18:09:20.190Z,17.17
2023-03-08T18:11:50.159Z,16.70
2023-03-08T18:14:24.287Z,17.73
2023-03-08T18:16:50.918Z,18.05
2023-03-08T18:19:20.319Z,18.40
2023-03-08T18:21:51.186Z,18.35
2023-03-08T18:24:20.746Z,19.98
2023-03-08T18:26:49.963Z,18.15
2023-03-08T18:29:19.912Z,20.00
2023-03-08T18:31:49.138Z,18.98
2023-03-08T18:34:18.391Z,17.90
2023-03-08T18:36:47.647Z,18.60
2023-03-08T18:39:16.964Z,18.30
2023-03-08T18:41:46.674Z,19.12
2023-03-08T18:44:16.415Z,19.87
2023-03-08T18:46:45.911Z,20.37
2023-03-08T18:49:15.988Z,21.17
2023-03-08T18:51:45.368Z,23.20
2023-03-08T18:54:18.403Z,25.92
2023-03-08T18:56:50.194Z,24.30
2023-03-08T18:59:19.599Z,33.33
2023-03-08T19:01:52.326Z,27.35
2023-03-08T19:04:22.255Z,24.05
2023-03-08T19:06:52.195Z,26.77
2023-03-08T19:09:22.378Z,26.97
2023-03-08T19:11:52.863Z,26.27
2023-03-08T19:14:22.175Z,28.80
2023-03-08T19:16:52.159Z,27.45
2023-03-08T19:19:21.669Z,25.17
2023-03-08T19:21:51.021Z,24.57
2023-03-08T19:24:21.957Z,23.40
2023-03-08T19:26:53.499Z,24.87
2023-03-08T19:29:25.608Z,22.13
2023-03-08T19:32:00.759Z,22.77
2023-03-08T19:34:33.243Z,23.55
2023-03-08T19:37:04.443Z,20.97
2023-03-08T19:39:35.684Z,21.10
2023-03-08T19:42:10.923Z,21.37
2023-03-08T19:44:40.554Z,21.90
2023-03-08T19:47:11.493Z,21.45
2023-03-08T19:49:41.078Z,20.85
2023-03-08T19:52:14.045Z,21.48
2023-03-08T19:54:44.596Z,20.75
2023-03-08T19:57:14.002Z,21.33
2023-03-08T19:59:43.500Z,20.95
2023-03-08T20:02:14.243Z,22.82
2023-03-08T20:07:14.012Z,20.80
2023-03-08T20:09:43.546Z,20.43
2023-03-08T20:12:12.872Z,19.70
2023-03-08T20:14:42.262Z,19.52
2023-03-08T20:17:11.706Z,20.27
2023-03-08T20:19:41.325Z,20.40
2023-03-08T20:22:10.794Z,19.85
2023-03-08T20:24:40.246Z,21.62
2023-03-08T20:27:09.538Z,20.43
2023-03-08T20:29:39.213Z,20.85
2023-03-08T20:32:08.590Z,22.55
2023-03-08T20:34:38.703Z,21.42
2023-03-08T20:37:08.077Z,21.50
2023-03-08T20:39:37.589Z,22.27
2023-03-08T20:42:07.214Z,22.10
2023-03-08T20:44:36.647Z,21.57
2023-03-08T20:47:06.253Z,22.90
2023-03-08T20:49:35.731Z,22.98
2023-03-08T20:52:07.003Z,23.85
2023-03-08T20:54:36.514Z,23.57
2023-03-08T20:57:06.227Z,22.17
2023-03-08T20:59:35.695Z,23.35
2023-03-08T21:02:05.197Z,22.93
2023-03-08T21:04:35.072Z,22.50
2023-03-08T21:07:05.863Z,23.30
2023-03-08T21:09:35.352Z,24.02
2023-03-08T21:12:05.469Z,24.07
2023-03-08T21:14:34.935Z,23.45
2023-03-08T21:17:04.591Z,23.18
2023-03-08T21:19:34.005Z,24.12
2023-03-08T21:22:03.574Z,23.00
2023-03-08T21:24:33.022Z,23.15
2023-03-08T21:27:02.741Z,24.72
2023-03-08T21:29:32.264Z,26.25
2023-03-08T21:32:01.876Z,23.87
2023-03-08T21:34:31.226Z,25.23
2023-03-08T21:37:00.924Z,24.85
2023-03-08T21:39:30.390Z,25.82
2023-03-08T21:42:00.675Z,25.37
2023-03-08T21:44:31.970Z,26.12
2023-03-08T21:47:01.116Z,26.82
2023-03-08T21:49:33.578Z,27.07
2023-03-08T21:54:35.071Z,25.97
2023-03-08T21:57:04.440Z,26.97
2023-03-08T21:59:33.854Z,25.90
2023-03-08T22:02:06.067Z,25.70
2023-03-08T22:07:06.921Z,25.35
2023-03-08T22:09:36.146Z,24.37
2023-03-08T22:12:07.189Z,23.55
2023-03-08T22:14:36.926Z,23.33
2023-03-08T22:17:07.358Z,24.55
2023-03-08T22:19:36.617Z,23.00
2023-03-08T22:22:11.120Z,24.07
2023-03-08T22:24:45.038Z,24.45
2023-03-08T22:27:19.556Z,24.20
2023-03-08T22:29:50.554Z,23.57
2023-03-08T22:32:32.092Z,23.60
2023-03-08T22:35:01.770Z,22.83
2023-03-08T22:37:32.360Z,23.73
2023-03-08T22:40:09.964Z,23.07
2023-03-08T22:42:41.670Z,22.87
2023-03-08T22:45:16.598Z,23.52
2023-03-08T22:47:47.392Z,22.62
2023-03-08T22:50:18.286Z,23.57
2023-03-08T22:52:48.155Z,22.85
2023-03-08T22:55:17.866Z,23.12
2023-03-08T22:57:47.165Z,22.80
2023-03-08T23:00:17.262Z,23.05
2023-03-08T23:02:48.120Z,22.45
2023-03-08T23:05:20.344Z,24.25
2023-03-08T23:07:49.677Z,23.12
2023-03-08T23:10:19.100Z,24.12
2023-03-08T23:12:48.837Z,26.02
2023-03-08T23:15:18.200Z,26.50
2023-03-08T23:17:47.741Z,24.63
2023-03-08T23:20:18.922Z,25.52
2023-03-08T23:22:49.322Z,26.93
2023-03-08T23:25:19.815Z,25.90
2023-03-08T23:27:49.137Z,26.17
2023-03-08T23:30:18.662Z,25.37
2023-03-08T23:32:48.451Z,26.25
2023-03-08T23:35:17.983Z,25.60
2023-03-08T23:37:47.566Z,25.43
2023-03-08T23:40:16.958Z,24.40
2023-03-08T23:42:46.374Z,24.55
2023-03-08T23:45:15.601Z,24.40
2023-03-08T23:47:44.997Z,23.27
2023-03-08T23:50:14.249Z,23.35
2023-03-08T23:52:43.492Z,23.18
2023-03-08T23:55:13.328Z,23.62
2023-03-08T23:57:42.744Z,24.75
